createdAt,value
2023-05-14T00:00:48.254Z,24.49
2023-05-14T00:01:48.285Z,24.51
2023-05-14T00:02:48.417Z,24.49
2023-05-14T00:03:48.453Z,24.49
2023-05-14T00:04:48.455Z,24.49
2023-05-14T00:05:48.469Z,24.49
2023-05-14T00:06:48.508Z,24.49
2023-05-14T00:07:48.566Z,24.49
2023-05-14T00:08:48.570Z,24.48
2023-05-14T00:09:48.627Z,24.49
2023-05-14T00:10:48.688Z,24.48
2023-05-14T00:11:48.706Z,24.48
2023-05-14T00:12:48.761Z,24.48
2023-05-14T00:13:48.779Z,24.47
2023-05-14T00:14:48.850Z,24.49
2023-05-14T00:15:48.932Z,24.48
2023-05-14T00:16:48.914Z,24.48
2023-05-14T00:17:49.031Z,24.48
2023-05-14T00:18:49.034Z,24.47
2023-05-14T00:19:49.030Z,24.47
2023-05-14T00:20:49.078Z,24.48
2023-05-14T00:21:49.124Z,24.47
2023-05-14T00:22:49.173Z,24.46
2023-05-14T00:23:49.220Z,24.47
2023-05-14T00:24:49.211Z,24.46
2023-05-14T00:25:49.197Z,24.46
2023-05-14T00:26:49.194Z,24.46
2023-05-14T00:27:49.199Z,24.46
2023-05-14T00:28:49.174Z,24.46
2023-05-14T00:29:49.171Z,24.46
2023-05-14T00:30:49.178Z,24.46
2023-05-14T00:31:49.299Z,24.46
2023-05-14T00:32:49.228Z,24.46
2023-05-14T00:33:49.144Z,24.46
2023-05-14T00:34:49.179Z,24.46
2023-05-14T00:35:49.220Z,24.46
2023-05-14T00:36:49.266Z,24.46
2023-05-14T00:37:49.306Z,24.46
2023-05-14T00:38:49.378Z,24.46
2023-05-14T00:39:49.415Z,24.46
2023-05-14T00:40:49.455Z,24.47
2023-05-14T00:41:49.489Z,24.46
2023-05-14T00:42:49.551Z,24.45
2023-05-14T00:43:49.572Z,24.46
2023-05-14T00:44:49.636Z,24.46
2023-05-14T00:45:49.667Z,24.44
2023-05-14T00:46:49.739Z,24.45
2023-05-14T00:47:49.780Z,24.44
2023-05-14T00:48:49.836Z,24.44
2023-05-14T00:49:49.874Z,24.44
2023-05-14T00:50:49.915Z,24.45
2023-05-14T00:51:49.979Z,24.44
2023-05-14T00:52:50.004Z,24.44
2023-05-14T00:53:50.044Z,24.43
2023-05-14T00:54:50.128Z,24.44
2023-05-14T00:55:50.150Z,24.44
2023-05-14T00:56:50.201Z,24.44
2023-05-14T00:57:50.236Z,24.44
2023-05-14T00:58:50.292Z,24.44
2023-05-14T00:59:50.336Z,24.44
2023-05-14T01:00:50.413Z,24.44
2023-05-14T01:01:50.432Z,24.44
2023-05-14T01:02:50.531Z,24.44
2023-05-14T01:03:50.624Z,24.44
2023-05-14T01:04:50.584Z,24.43
2023-05-14T01:05:50.619Z,24.42
2023-05-14T01:06:50.667Z,24.42
2023-05-14T01:07:50.720Z,24.42
2023-05-14T01:08:50.792Z,24.42
2023-05-14T01:09:50.810Z,24.43
2023-05-14T01:10:50.858Z,24.41
2023-05-14T01:11:50.895Z,24.42
2023-05-14T01:12:50.961Z,24.42
2023-05-14T01:13:50.988Z,24.41
2023-05-14T01:14:51.110Z,24.43
2023-05-14T01:15:51.111Z,24.42
2023-05-14T01:16:51.228Z,24.42
2023-05-14T01:17:51.240Z,24.41
2023-05-14T01:18:51.354Z,24.41
2023-05-14T01:19:51.314Z,24.39
2023-05-14T01:20:51.325Z,24.40
2023-05-14T01:21:51.380Z,24.40
2023-05-14T01:22:51.427Z,24.41
2023-05-14T01:23:51.491Z,24.41
2023-05-14T01:24:51.538Z,24.40
2023-05-14T01:25:51.585Z,24.40
2023-05-14T01:26:51.628Z,24.41
2023-05-14T01:27:51.622Z,24.40
2023-05-14T01:28:51.674Z,24.40
2023-05-14T01:29:51.636Z,24.40
2023-05-14T01:30:51.603Z,24.40
2023-05-14T01:31:51.662Z,24.40
2023-05-14T01:32:51.709Z,24.39
2023-05-14T01:33:51.584Z,24.40
2023-05-14T01:34:51.565Z,24.40
2023-05-14T01:35:51.546Z,24.40
2023-05-14T01:36:51.586Z,24.39
2023-05-14T01:37:51.641Z,24.39
2023-05-14T01:38:51.662Z,24.40
2023-05-14T01:39:51.719Z,24.39
2023-05-14T01:40:51.782Z,24.39
2023-05-14T01:41:51.792Z,24.39
2023-05-14T01:42:51.832Z,24.39
2023-05-14T01:43:51.793Z,24.39
2023-05-14T01:44:51.779Z,24.39
2023-05-14T01:45:51.787Z,24.39
2023-05-14T01:46:51.800Z,24.39
2023-05-14T01:47:51.814Z,24.39
2023-05-14T01:48:51.747Z,24.39
2023-05-14T01:49:51.742Z,24.38
2023-05-14T01:50:51.737Z,24.38
2023-05-14T01:51:51.724Z,24.38
2023-05-14T01:52:51.723Z,24.39
2023-05-14T01:53:51.703Z,24.39
2023-05-14T01:54:51.713Z,24.39
2023-05-14T01:55:51.698Z,24.39
2023-05-14T01:56:51.679Z,24.37
2023-05-14T01:57:51.678Z,24.37
2023-05-14T01:58:51.683Z,24.37
2023-05-14T01:59:51.665Z,24.38
2023-05-14T02:00:51.680Z,24.38
2023-05-14T02:01:51.704Z,24.38
2023-05-14T02:02:51.711Z,24.37
2023-05-14T02:03:51.685Z,24.38
2023-05-14T02:04:51.657Z,24.37
2023-05-14T02:05:51.687Z,24.37
2023-05-14T02:06:51.733Z,24.36
2023-05-14T02:07:51.785Z,24.36
2023-05-14T02:08:51.840Z,24.36
2023-05-14T02:09:51.815Z,24.36
2023-05-14T02:10:51.798Z,24.37
2023-05-14T02:11:51.811Z,24.37
2023-05-14T02:12:51.769Z,24.36
2023-05-14T02:13:51.777Z,24.37
2023-05-14T02:14:51.748Z,24.37
2023-05-14T02:15:51.823Z,24.37
2023-05-14T02:16:51.724Z,24.37
2023-05-14T02:17:51.831Z,24.36
2023-05-14T02:18:51.728Z,24.36
2023-05-14T02:19:51.703Z,24.37
2023-05-14T02:20:51.670Z,24.37
2023-05-14T02:21:51.669Z,24.36
2023-05-14T02:22:51.632Z,24.37
2023-05-14T02:23:51.643Z,24.36
2023-05-14T02:24:51.673Z,24.35
2023-05-14T02:25:51.649Z,24.35
2023-05-14T02:26:51.716Z,24.36
2023-05-14T02:27:51.764Z,24.36
2023-05-14T02:28:51.822Z,24.35
2023-05-14T02:29:51.839Z,24.36
2023-05-14T02:30:51.889Z,24.35
2023-05-14T02:31:52.117Z,24.35
2023-05-14T02:32:51.962Z,24.35
2023-05-14T02:33:51.913Z,24.34
2023-05-14T02:34:51.884Z,24.35
2023-05-14T02:35:51.887Z,24.35
2023-05-14T02:36:51.896Z,24.35
2023-05-14T02:37:51.849Z,24.35
2023-05-14T02:38:51.829Z,24.35
2023-05-14T02:39:51.809Z,24.35
2023-05-14T02:40:51.809Z,24.35
2023-05-14T02:41:51.826Z,24.35
2023-05-14T02:42:51.895Z,24.35
2023-05-14T02:43:51.940Z,24.35
2023-05-14T02:44:52.008Z,24.35
2023-05-14T02:45:52.082Z,24.34
2023-05-14T02:46:52.144Z,24.32
2023-05-14T02:47:52.150Z,24.30
2023-05-14T02:48:52.108Z,24.27
2023-05-14T02:49:52.086Z,24.25
2023-05-14T02:50:52.115Z,24.25
2023-05-14T02:51:52.071Z,24.24
2023-05-14T02:52:52.062Z,24.22
2023-05-14T02:53:52.048Z,24.19
2023-05-14T02:54:52.060Z,24.15
2023-05-14T02:55:52.034Z,24.11
2023-05-14T02:56:52.025Z,24.07
2023-05-14T02:57:52.039Z,24.03
2023-05-14T02:58:52.031Z,23.99
2023-05-14T02:59:52.039Z,23.95
2023-05-14T03:00:52.064Z,23.94
2023-05-14T03:01:52.085Z,23.89
2023-05-14T03:02:52.121Z,23.87
2023-05-14T03:03:52.013Z,23.84
2023-05-14T03:04:52.015Z,23.82
2023-05-14T03:05:52.077Z,23.79
2023-05-14T03:06:52.018Z,23.76
2023-05-14T03:07:52.030Z,23.75
2023-05-14T03:08:52.014Z,23.73
2023-05-14T03:09:52.008Z,23.70
2023-05-14T03:10:52.006Z,23.68
2023-05-14T03:11:52.011Z,23.68
2023-05-14T03:12:52.044Z,23.69
2023-05-14T03:13:52.021Z,23.71
2023-05-14T03:14:52.024Z,23.70
2023-05-14T03:15:52.045Z,23.69
2023-05-14T03:16:52.030Z,23.67
2023-05-14T03:17:52.076Z,23.68
2023-05-14T03:18:52.096Z,23.68
2023-05-14T03:19:52.019Z,23.65
2023-05-14T03:20:52.012Z,23.61
2023-05-14T03:21:52.018Z,23.58
2023-05-14T03:22:52.025Z,23.55
2023-05-14T03:23:52.020Z,23.53
2023-05-14T03:24:52.007Z,23.51
2023-05-14T03:25:52.033Z,23.49
2023-05-14T03:26:52.012Z,23.46
2023-05-14T03:27:52.025Z,23.45
2023-05-14T03:28:52.028Z,23.44
2023-05-14T03:29:52.037Z,23.43
2023-05-14T03:30:52.072Z,23.42
2023-05-14T03:31:52.090Z,23.39
2023-05-14T03:32:52.206Z,23.37
2023-05-14T03:33:52.212Z,23.36
2023-05-14T03:34:52.260Z,23.35
2023-05-14T03:35:52.320Z,23.34
2023-05-14T03:36:52.371Z,23.33
2023-05-14T03:37:52.417Z,23.31
2023-05-14T03:38:52.465Z,23.29
2023-05-14T03:39:52.521Z,23.29
2023-05-14T03:40:52.584Z,23.28
2023-05-14T03:41:52.643Z,23.26
2023-05-14T03:42:52.715Z,23.25
2023-05-14T03:43:52.764Z,23.22
2023-05-14T03:44:52.820Z,23.22
2023-05-14T03:45:52.967Z,23.21
2023-05-14T03:46:52.954Z,23.20
2023-05-14T03:47:53.049Z,23.20
2023-05-14T03:48:53.091Z,23.20
2023-05-14T03:49:53.167Z,23.20
2023-05-14T03:50:53.191Z,23.19
2023-05-14T03:51:53.257Z,23.18
2023-05-14T03:52:53.331Z,23.17
2023-05-14T03:53:53.411Z,23.15
2023-05-14T03:54:53.461Z,23.14
2023-05-14T03:55:53.519Z,23.12
2023-05-14T03:56:53.576Z,23.12
2023-05-14T03:57:53.635Z,23.11
2023-05-14T03:58:53.693Z,23.10
2023-05-14T03:59:53.746Z,23.08
2023-05-14T04:00:53.802Z,23.07
2023-05-14T04:01:53.860Z,23.08
2023-05-14T04:02:53.950Z,23.07
2023-05-14T04:03:54.098Z,23.06
2023-05-14T04:04:54.146Z,23.06
2023-05-14T04:05:54.070Z,23.05
2023-05-14T04:06:54.064Z,23.05
2023-05-14T04:07:54.083Z,23.04
2023-05-14T04:08:54.078Z,23.05
2023-05-14T04:09:54.087Z,23.04
2023-05-14T04:10:54.099Z,23.03
2023-05-14T04:11:54.082Z,23.02
2023-05-14T04:12:54.082Z,23.01
2023-05-14T04:13:54.098Z,23.01
2023-05-14T04:14:54.098Z,23.00
2023-05-14T04:15:54.154Z,23.00
2023-05-14T04:16:54.097Z,23.00
2023-05-14T04:17:54.168Z,22.99
2023-05-14T04:18:54.173Z,22.97
2023-05-14T04:19:54.131Z,22.98
2023-05-14T04:20:54.221Z,22.97
2023-05-14T04:21:54.279Z,22.95
2023-05-14T04:22:54.332Z,22.94
2023-05-14T04:23:54.390Z,22.95
2023-05-14T04:24:54.455Z,22.95
2023-05-14T04:25:54.533Z,22.94
2023-05-14T04:26:54.578Z,22.93
2023-05-14T04:27:54.623Z,22.93
2023-05-14T04:28:54.683Z,22.92
2023-05-14T04:29:54.750Z,22.91
2023-05-14T04:30:54.857Z,22.92
2023-05-14T04:31:54.923Z,22.91
2023-05-14T04:32:54.963Z,22.90
2023-05-14T04:33:55.001Z,22.90
2023-05-14T04:34:55.058Z,22.89
2023-05-14T04:35:55.145Z,22.88
2023-05-14T04:36:55.138Z,22.88
2023-05-14T04:37:55.133Z,22.87
2023-05-14T04:38:55.137Z,22.87
2023-05-14T04:39:55.131Z,22.87
2023-05-14T04:40:55.150Z,22.87
2023-05-14T04:41:55.142Z,22.87
2023-05-14T04:42:55.153Z,22.86
2023-05-14T04:43:55.156Z,22.87
2023-05-14T04:44:55.151Z,22.86
2023-05-14T04:45:55.232Z,22.87
2023-05-14T04:46:55.278Z,22.86
2023-05-14T04:47:55.431Z,22.86
2023-05-14T04:48:55.444Z,22.85
2023-05-14T04:49:55.513Z,22.83
2023-05-14T04:50:55.573Z,22.83
2023-05-14T04:51:55.624Z,22.83
2023-05-14T04:52:55.688Z,22.84
2023-05-14T04:53:55.742Z,22.84
2023-05-14T04:54:55.816Z,22.83
2023-05-14T04:55:55.925Z,22.82
2023-05-14T04:56:55.941Z,22.81
2023-05-14T04:57:56.052Z,22.81
2023-05-14T04:58:56.117Z,22.81
2023-05-14T04:59:56.236Z,22.80
2023-05-14T05:00:56.324Z,22.81
2023-05-14T05:01:56.358Z,22.81
2023-05-14T05:02:56.444Z,22.81
2023-05-14T05:03:56.564Z,22.80
2023-05-14T05:04:56.575Z,22.81
2023-05-14T05:05:56.623Z,22.82
2023-05-14T05:06:56.680Z,22.81
2023-05-14T05:07:56.680Z,22.82
2023-05-14T05:08:56.697Z,22.82
2023-05-14T05:09:56.707Z,22.83
2023-05-14T05:10:56.724Z,22.82
2023-05-14T05:11:56.721Z,22.81
2023-05-14T05:12:56.739Z,22.80
2023-05-14T05:13:56.731Z,22.80
2023-05-14T05:14:56.739Z,22.80
2023-05-14T05:15:56.880Z,22.79
2023-05-14T05:16:56.880Z,22.77
2023-05-14T05:17:57.009Z,22.77
2023-05-14T05:18:57.080Z,22.79
2023-05-14T05:19:57.099Z,22.78
2023-05-14T05:20:57.164Z,22.77
2023-05-14T05:21:57.209Z,22.78
2023-05-14T05:22:57.296Z,22.77
2023-05-14T05:23:57.356Z,22.77
2023-05-14T05:24:57.417Z,22.77
2023-05-14T05:25:57.487Z,22.77
2023-05-14T05:26:57.535Z,22.76
2023-05-14T05:27:57.604Z,22.76
2023-05-14T05:28:57.691Z,22.77
2023-05-14T05:29:57.753Z,22.77
2023-05-14T05:30:57.811Z,22.76
2023-05-14T05:31:57.868Z,22.76
2023-05-14T05:32:58.060Z,22.74
2023-05-14T05:33:57.985Z,22.75
2023-05-14T05:34:58.033Z,22.74
2023-05-14T05:35:58.104Z,22.75
2023-05-14T05:36:58.196Z,22.75
2023-05-14T05:38:00.420Z,22.75
2023-05-14T05:38:58.297Z,22.74
2023-05-14T05:39:58.303Z,22.74
2023-05-14T05:40:58.320Z,22.74
2023-05-14T05:41:58.325Z,22.74
2023-05-14T05:42:58.328Z,22.74
2023-05-14T05:43:58.318Z,22.76
2023-05-14T05:44:58.346Z,22.75
2023-05-14T05:45:58.339Z,22.75
2023-05-14T05:46:58.356Z,22.74
2023-05-14T05:47:58.438Z,22.73
2023-05-14T05:48:58.469Z,22.73
2023-05-14T05:49:58.527Z,22.73
2023-05-14T05:50:58.614Z,22.72
2023-05-14T05:51:58.626Z,22.73
2023-05-14T05:52:58.715Z,22.72
2023-05-14T05:53:58.774Z,22.74
2023-05-14T05:54:58.840Z,22.74
2023-05-14T05:55:58.945Z,22.73
2023-05-14T05:56:59.013Z,22.74
2023-05-14T05:57:59.041Z,22.74
2023-05-14T05:58:59.144Z,22.73
2023-05-14T05:59:59.179Z,22.73
2023-05-14T06:00:59.281Z,22.73
2023-05-14T06:01:59.324Z,22.73
2023-05-14T06:02:59.326Z,22.72
2023-05-14T06:03:59.367Z,22.73
2023-05-14T06:04:59.409Z,22.72
2023-05-14T06:05:59.484Z,22.73
2023-05-14T06:06:59.552Z,22.73
2023-05-14T06:07:59.633Z,22.73
2023-05-14T06:08:59.684Z,22.73
2023-05-14T06:09:59.736Z,22.73
2023-05-14T06:10:59.780Z,22.73
2023-05-14T06:11:59.889Z,22.74
2023-05-14T06:12:59.865Z,22.73
2023-05-14T06:13:59.929Z,22.73
2023-05-14T06:15:00.023Z,22.74
2023-05-14T06:16:00.139Z,22.73
2023-05-14T06:17:00.471Z,22.74
2023-05-14T06:18:00.282Z,22.73
2023-05-14T06:19:00.333Z,22.73
2023-05-14T06:20:00.421Z,22.73
2023-05-14T06:21:00.509Z,22.74
2023-05-14T06:22:00.509Z,22.75
2023-05-14T06:23:00.564Z,22.75
2023-05-14T06:24:00.611Z,22.76
2023-05-14T06:25:00.689Z,22.77
2023-05-14T06:26:00.734Z,22.77
2023-05-14T06:27:00.833Z,22.77
2023-05-14T06:28:00.925Z,22.77
2023-05-14T06:29:01.002Z,22.78
2023-05-14T06:30:01.043Z,22.78
2023-05-14T06:31:01.063Z,22.78
2023-05-14T06:32:01.204Z,22.78
2023-05-14T06:33:01.338Z,22.77
2023-05-14T06:34:01.294Z,22.77
2023-05-14T06:35:01.304Z,22.77
2023-05-14T06:36:01.390Z,22.77
2023-05-14T06:37:01.429Z,22.78
2023-05-14T06:38:01.484Z,22.78
2023-05-14T06:39:01.555Z,22.78
2023-05-14T06:40:01.631Z,22.80
2023-05-14T06:41:01.708Z,22.80
2023-05-14T06:42:01.695Z,22.80
2023-05-14T06:43:01.709Z,22.80
2023-05-14T06:44:01.703Z,22.81
2023-05-14T06:45:01.710Z,22.80
2023-05-14T06:46:01.732Z,22.80
2023-05-14T06:47:01.794Z,22.81
2023-05-14T06:48:01.806Z,22.82
2023-05-14T06:49:01.798Z,22.82
2023-05-14T06:50:01.769Z,22.82
2023-05-14T06:51:01.784Z,22.83
2023-05-14T06:52:01.778Z,22.81
2023-05-14T06:53:01.774Z,22.80
2023-05-14T06:54:01.784Z,22.81
2023-05-14T06:55:01.783Z,22.80
2023-05-14T06:56:01.802Z,22.80
2023-05-14T06:57:01.816Z,22.80
2023-05-14T06:58:01.825Z,22.81
2023-05-14T06:59:01.825Z,22.81
2023-05-14T07:00:03.484Z,22.81
2023-05-14T07:01:01.909Z,22.82
2023-05-14T07:02:01.836Z,22.83
2023-05-14T07:03:01.846Z,22.84
2023-05-14T07:04:01.942Z,22.85
2023-05-14T07:05:01.843Z,22.85
2023-05-14T07:06:01.902Z,22.85
2023-05-14T07:07:01.930Z,22.85
2023-05-14T07:08:01.960Z,22.86
2023-05-14T07:09:02.020Z,22.86
2023-05-14T07:10:02.082Z,22.87
2023-05-14T07:11:02.215Z,22.87
2023-05-14T07:12:02.257Z,22.88
2023-05-14T07:13:02.340Z,22.89
2023-05-14T07:14:02.430Z,22.89
2023-05-14T07:15:02.516Z,22.90
2023-05-14T07:16:02.613Z,22.91
2023-05-14T07:17:02.704Z,22.91
2023-05-14T07:18:02.768Z,22.92
2023-05-14T07:19:02.821Z,22.93
2023-05-14T07:20:02.863Z,22.94
2023-05-14T07:21:02.936Z,22.95
2023-05-14T07:22:03.025Z,22.96
2023-05-14T07:23:03.086Z,22.98
2023-05-14T07:24:03.141Z,23.02
2023-05-14T07:25:03.295Z,23.05
2023-05-14T07:26:03.281Z,23.06
2023-05-14T07:27:03.388Z,23.08
2023-05-14T07:28:03.391Z,23.08
2023-05-14T07:29:03.457Z,23.09
2023-05-14T07:30:03.521Z,23.12
2023-05-14T07:31:03.605Z,23.14
2023-05-14T07:32:03.682Z,23.15
2023-05-14T07:33:03.807Z,23.16
2023-05-14T07:34:03.812Z,23.18
2023-05-14T07:35:03.889Z,23.20
2023-05-14T07:36:03.954Z,23.22
2023-05-14T07:37:04.031Z,23.25
2023-05-14T07:38:04.082Z,23.27
2023-05-14T07:39:04.154Z,23.29
2023-05-14T07:40:04.205Z,23.31
2023-05-14T07:41:04.286Z,23.33
2023-05-14T07:42:04.378Z,23.33
2023-05-14T07:43:04.410Z,23.34
2023-05-14T07:44:04.501Z,23.35
2023-05-14T07:45:04.564Z,23.35
2023-05-14T07:46:04.626Z,23.37
2023-05-14T07:47:04.752Z,23.37
2023-05-14T07:48:04.837Z,23.36
2023-05-14T07:49:04.842Z,23.38
2023-05-14T07:50:04.883Z,23.39
2023-05-14T07:51:04.949Z,23.38
2023-05-14T07:52:05.015Z,23.38
2023-05-14T07:53:05.085Z,23.38
2023-05-14T07:54:05.134Z,23.38
2023-05-14T07:55:05.198Z,23.38
2023-05-14T07:56:05.258Z,23.36
2023-05-14T07:57:05.342Z,23.35
2023-05-14T07:58:05.385Z,23.36
2023-05-14T07:59:05.445Z,23.37
2023-05-14T08:00:05.502Z,23.35
2023-05-14T08:01:05.572Z,23.34
2023-05-14T08:02:05.726Z,23.35
2023-05-14T08:03:05.935Z,23.35
2023-05-14T08:04:05.846Z,23.36
2023-05-14T08:05:05.851Z,23.37
2023-05-14T08:06:05.893Z,23.36
2023-05-14T08:07:05.960Z,23.35
2023-05-14T08:08:06.040Z,23.33
2023-05-14T08:09:06.089Z,23.31
2023-05-14T08:10:06.165Z,23.33
2023-05-14T08:11:06.301Z,23.34
2023-05-14T08:12:06.289Z,23.35
2023-05-14T08:13:06.318Z,23.35
2023-05-14T08:14:06.308Z,23.37
2023-05-14T08:15:06.293Z,23.39
2023-05-14T08:16:06.288Z,23.39
2023-05-14T08:17:06.400Z,23.41
2023-05-14T08:18:06.376Z,23.44
2023-05-14T08:19:06.349Z,23.45
2023-05-14T08:20:06.278Z,23.47
2023-05-14T08:21:06.290Z,23.48
2023-05-14T08:22:06.279Z,23.48
2023-05-14T08:23:06.338Z,23.48
2023-05-14T08:24:06.414Z,23.48
2023-05-14T08:25:06.501Z,23.47
2023-05-14T08:26:06.523Z,23.46
2023-05-14T08:27:06.604Z,23.48
2023-05-14T08:28:06.638Z,23.48
2023-05-14T08:29:07.456Z,23.49
2023-05-14T08:30:06.759Z,23.48
2023-05-14T08:31:06.850Z,23.48
2023-05-14T08:32:15.936Z,23.46
2023-05-14T08:33:07.907Z,23.45
2023-05-14T08:34:06.895Z,23.45
2023-05-14T08:35:06.900Z,23.45
2023-05-14T08:36:06.884Z,23.43
2023-05-14T08:37:06.887Z,23.43
2023-05-14T08:38:06.900Z,23.45
2023-05-14T08:39:06.886Z,23.49
2023-05-14T08:40:06.884Z,23.50
2023-05-14T08:41:06.882Z,23.51
2023-05-14T08:42:06.895Z,23.52
2023-05-14T08:43:06.900Z,23.53
2023-05-14T08:44:06.900Z,23.52
2023-05-14T08:45:06.922Z,23.53
2023-05-14T08:46:06.984Z,23.54
2023-05-14T08:47:07.039Z,23.53
2023-05-14T08:48:07.144Z,23.51
2023-05-14T08:49:07.240Z,23.50
2023-05-14T08:50:07.218Z,23.48
2023-05-14T08:51:07.269Z,23.46
2023-05-14T08:52:07.324Z,23.47
2023-05-14T08:53:07.412Z,23.49
2023-05-14T08:54:07.422Z,23.50
2023-05-14T08:55:07.477Z,23.51
2023-05-14T08:56:07.503Z,23.54
2023-05-14T08:57:07.573Z,23.56
2023-05-14T08:58:07.582Z,23.59
2023-05-14T08:59:07.621Z,23.61
2023-05-14T09:00:07.649Z,23.65
2023-05-14T09:01:07.694Z,23.67
2023-05-14T09:02:07.863Z,23.69
2023-05-14T09:03:07.846Z,23.73
2023-05-14T09:04:07.716Z,23.75
2023-05-14T09:05:07.744Z,23.77
2023-05-14T09:06:07.725Z,23.81
2023-05-14T09:07:07.748Z,23.83
2023-05-14T09:08:07.745Z,23.85
2023-05-14T09:09:07.772Z,23.87
2023-05-14T09:10:07.726Z,23.89
2023-05-14T09:11:07.720Z,23.91
2023-05-14T09:12:07.714Z,23.92
2023-05-14T09:13:07.733Z,23.94
2023-05-14T09:14:07.721Z,23.95
2023-05-14T09:15:07.731Z,23.98
2023-05-14T09:16:07.764Z,24.00
2023-05-14T09:17:07.710Z,24.03
2023-05-14T09:18:07.728Z,24.03
2023-05-14T09:19:07.810Z,24.04
2023-05-14T09:20:07.736Z,24.06
2023-05-14T09:21:07.678Z,24.07
2023-05-14T09:22:07.684Z,24.09
2023-05-14T09:23:07.666Z,24.10
2023-05-14T09:24:07.664Z,24.12
2023-05-14T09:25:07.668Z,24.12
2023-05-14T09:26:07.664Z,24.14
2023-05-14T09:27:07.670Z,24.15
2023-05-14T09:28:07.694Z,24.17
2023-05-14T09:29:07.737Z,24.17
2023-05-14T09:30:07.789Z,24.18
2023-05-14T09:31:07.883Z,24.19
2023-05-14T09:32:07.926Z,24.19
2023-05-14T09:33:07.993Z,24.19
2023-05-14T09:34:08.006Z,24.19
2023-05-14T09:35:08.077Z,24.20
2023-05-14T09:36:08.130Z,24.20
2023-05-14T09:37:08.191Z,24.19
2023-05-14T09:38:08.247Z,24.21
2023-05-14T09:39:08.299Z,24.21
2023-05-14T09:40:08.372Z,24.21
2023-05-14T09:41:08.406Z,24.21
2023-05-14T09:42:08.483Z,24.22
2023-05-14T09:43:08.523Z,24.22
2023-05-14T09:44:08.599Z,24.22
2023-05-14T09:45:08.650Z,24.22
2023-05-14T09:46:08.683Z,24.24
2023-05-14T09:47:08.833Z,24.25
2023-05-14T09:48:08.876Z,24.25
2023-05-14T09:49:08.843Z,24.26
2023-05-14T09:50:08.907Z,24.25
2023-05-14T09:51:08.877Z,24.25
2023-05-14T09:52:08.893Z,24.26
2023-05-14T09:53:08.878Z,24.25
2023-05-14T09:54:08.871Z,24.26
2023-05-14T09:55:08.834Z,24.26
2023-05-14T09:56:08.824Z,24.26
2023-05-14T09:57:08.821Z,24.26
2023-05-14T09:58:08.817Z,24.27
2023-05-14T09:59:08.859Z,24.26
2023-05-14T10:00:08.866Z,24.26
2023-05-14T10:01:08.896Z,24.26
2023-05-14T10:02:08.851Z,24.25
2023-05-14T10:03:08.859Z,24.25
2023-05-14T10:04:08.827Z,24.25
2023-05-14T10:05:08.813Z,24.24
2023-05-14T10:06:08.814Z,24.25
2023-05-14T10:07:08.813Z,24.24
2023-05-14T10:08:08.783Z,24.24
2023-05-14T10:09:08.852Z,24.24
2023-05-14T10:10:08.909Z,24.24
2023-05-14T10:11:08.968Z,24.25
2023-05-14T10:12:09.026Z,24.25
2023-05-14T10:13:09.057Z,24.23
2023-05-14T10:14:09.120Z,24.21
2023-05-14T10:15:09.176Z,24.21
2023-05-14T10:16:09.239Z,24.20
2023-05-14T10:17:09.363Z,24.21
2023-05-14T10:18:09.383Z,24.21
2023-05-14T10:19:09.510Z,24.21
2023-05-14T10:20:09.480Z,24.23
2023-05-14T10:21:09.500Z,24.23
2023-05-14T10:22:09.555Z,24.22
2023-05-14T10:23:09.600Z,24.23
2023-05-14T10:24:09.645Z,24.23
2023-05-14T10:25:09.692Z,24.23
2023-05-14T10:26:09.687Z,24.23
2023-05-14T10:27:09.685Z,24.22
2023-05-14T10:28:09.667Z,24.23
2023-05-14T10:29:09.671Z,24.23
2023-05-14T10:30:09.661Z,24.24
2023-05-14T10:31:09.699Z,24.25
2023-05-14T10:32:09.682Z,24.25
2023-05-14T10:33:09.685Z,24.25
2023-05-14T10:34:09.638Z,24.25
2023-05-14T10:35:09.695Z,24.25
2023-05-14T10:36:09.744Z,24.24
2023-05-14T10:37:09.790Z,24.26
2023-05-14T10:38:09.846Z,24.26
2023-05-14T10:39:09.896Z,24.25
2023-05-14T10:40:09.938Z,24.26
2023-05-14T10:41:09.918Z,24.24
2023-05-14T10:42:09.918Z,24.26
2023-05-14T10:43:09.904Z,24.25
2023-05-14T10:44:09.877Z,24.26
2023-05-14T10:45:09.861Z,24.26
2023-05-14T10:46:09.934Z,24.26
2023-05-14T10:47:09.846Z,24.28
2023-05-14T10:48:09.880Z,24.28
2023-05-14T10:49:09.848Z,24.27
2023-05-14T10:50:09.891Z,24.27
2023-05-14T10:51:10.036Z,24.28
2023-05-14T10:52:09.963Z,24.28
2023-05-14T10:53:10.014Z,24.30
2023-05-14T10:54:10.060Z,24.29
2023-05-14T10:55:10.206Z,24.30
2023-05-14T10:56:10.143Z,24.31
2023-05-14T10:57:10.183Z,24.31
2023-05-14T10:58:10.235Z,24.31
2023-05-14T10:59:10.281Z,24.32
2023-05-14T11:00:10.320Z,24.32
2023-05-14T11:01:10.377Z,24.33
2023-05-14T11:02:10.528Z,24.33
2023-05-14T11:03:10.496Z,24.35
2023-05-14T11:04:10.492Z,24.34
2023-05-14T11:05:10.529Z,24.35
2023-05-14T11:06:10.588Z,24.35
2023-05-14T11:07:10.607Z,24.35
2023-05-14T11:08:10.677Z,24.35
2023-05-14T11:09:10.681Z,24.37
2023-05-14T11:10:10.748Z,24.38
2023-05-14T11:11:10.845Z,24.38
2023-05-14T11:12:10.794Z,24.38
2023-05-14T11:13:10.848Z,24.39
2023-05-14T11:14:10.883Z,24.39
2023-05-14T11:15:10.931Z,24.39
2023-05-14T11:16:22.923Z,24.40
2023-05-14T11:17:12.092Z,24.40
2023-05-14T11:18:10.969Z,24.41
2023-05-14T11:19:11.050Z,24.41
2023-05-14T11:20:10.894Z,24.42
2023-05-14T11:21:10.913Z,24.42
2023-05-14T11:22:10.871Z,24.40
2023-05-14T11:23:10.846Z,24.42
2023-05-14T11:24:10.838Z,24.43
2023-05-14T11:25:10.830Z,24.43
2023-05-14T11:26:10.861Z,24.44
2023-05-14T11:27:10.792Z,24.44
2023-05-14T11:28:10.770Z,24.45
2023-05-14T11:29:10.769Z,24.46
2023-05-14T11:30:10.747Z,24.45
2023-05-14T11:31:10.781Z,24.46
2023-05-14T11:32:10.990Z,24.47
2023-05-14T11:33:10.760Z,24.47
2023-05-14T11:34:10.689Z,24.47
2023-05-14T11:35:10.680Z,24.47
2023-05-14T11:36:10.661Z,24.48
2023-05-14T11:37:10.646Z,24.50
2023-05-14T11:38:10.660Z,24.50
2023-05-14T11:39:10.629Z,24.51
2023-05-14T11:40:10.626Z,24.51
2023-05-14T11:41:10.591Z,24.50
2023-05-14T11:42:10.582Z,24.51
2023-05-14T11:43:10.582Z,24.51
2023-05-14T11:44:10.558Z,24.51
2023-05-14T11:45:10.543Z,24.52
2023-05-14T11:46:10.580Z,24.53
2023-05-14T11:47:10.506Z,24.52
2023-05-14T11:48:10.509Z,24.53
2023-05-14T11:49:10.506Z,24.53
2023-05-14T11:50:10.454Z,24.54
2023-05-14T11:51:10.437Z,24.54
2023-05-14T11:52:10.468Z,24.54
2023-05-14T11:53:10.420Z,24.55
2023-05-14T11:54:10.408Z,24.55
2023-05-14T11:55:10.391Z,24.56
2023-05-14T11:56:10.375Z,24.57
2023-05-14T11:57:10.366Z,24.57
2023-05-14T11:58:10.371Z,24.56
2023-05-14T11:59:10.340Z,24.56
2023-05-14T12:00:10.321Z,24.58
2023-05-14T12:01:10.315Z,24.58
2023-05-14T12:02:10.344Z,24.58
2023-05-14T12:03:10.428Z,24.58
2023-05-14T12:04:10.414Z,24.58
2023-05-14T12:05:10.363Z,24.57
2023-05-14T12:06:10.409Z,24.58
2023-05-14T12:07:10.437Z,24.58
2023-05-14T12:08:10.446Z,24.58
2023-05-14T12:09:10.460Z,24.59
2023-05-14T12:10:10.492Z,24.59
2023-05-14T12:11:10.541Z,24.59
2023-05-14T12:12:10.542Z,24.58
2023-05-14T12:13:10.573Z,24.57
2023-05-14T12:14:10.601Z,24.57
2023-05-14T12:15:10.623Z,24.58
2023-05-14T12:16:10.697Z,24.57
2023-05-14T12:17:10.633Z,24.57
2023-05-14T12:18:23.021Z,24.56
2023-05-14T12:19:11.651Z,24.56
2023-05-14T12:20:10.576Z,24.56
2023-05-14T12:21:10.564Z,24.56
2023-05-14T12:22:10.561Z,24.56
2023-05-14T12:23:10.561Z,24.55
2023-05-14T12:24:10.519Z,24.55
2023-05-14T12:25:10.507Z,24.55
2023-05-14T12:26:10.500Z,24.54
2023-05-14T12:27:10.473Z,24.54
2023-05-14T12:28:10.467Z,24.54
2023-05-14T12:29:10.441Z,24.54
2023-05-14T12:31:10.467Z,24.54
2023-05-14T12:32:10.395Z,24.55
2023-05-14T12:33:10.471Z,24.54
2023-05-14T12:34:10.365Z,24.54
2023-05-14T12:35:10.340Z,24.54
2023-05-14T12:36:21.415Z,24.54
2023-05-14T12:37:11.312Z,24.54
2023-05-14T12:38:10.306Z,24.53
2023-05-14T12:39:10.295Z,24.54
2023-05-14T12:40:10.367Z,24.54
2023-05-14T12:41:10.259Z,24.53
2023-05-14T12:42:10.248Z,24.53
2023-05-14T12:43:10.262Z,24.53
2023-05-14T12:44:10.217Z,24.53
2023-05-14T12:45:10.202Z,24.53
2023-05-14T12:46:10.187Z,24.53
2023-05-14T12:47:10.231Z,24.54
2023-05-14T12:48:10.230Z,24.54
2023-05-14T12:49:10.160Z,24.54
2023-05-14T12:50:10.136Z,24.54
2023-05-14T12:51:10.126Z,24.53
2023-05-14T12:53:11.101Z,24.52
2023-05-14T12:54:10.094Z,24.53
2023-05-14T12:55:10.104Z,24.52